createdAt,value
2022-11-19T00:01:42.828Z,89.9
2022-11-19T00:06:42.869Z,88.7
2022-11-19T00:11:42.844Z,90.2
2022-11-19T00:21:42.866Z,90.0
2022-11-19T00:26:42.886Z,87.7
2022-11-19T00:31:42.883Z,88.3
2022-11-19T00:36:42.840Z,89.1
2022-11-19T00:41:42.871Z,88.1
2022-11-19T00:46:42.880Z,89.4
2022-11-19T00:51:42.852Z,87.6
2022-11-19T01:01:42.900Z,87.2
2022-11-19T01:06:42.877Z,87.4
2022-11-19T01:11:42.880Z,85.8
2022-11-19T01:16:42.860Z,87.6
2022-11-19T01:26:45.566Z,86.7
2022-11-19T01:31:42.881Z,86.4
2022-11-19T01:41:42.860Z,87.2
2022-11-19T01:46:42.885Z,86.0
2022-11-19T01:51:42.868Z,87.0
2022-11-19T02:01:42.927Z,84.5
2022-11-19T02:06:42.895Z,84.5
2022-11-19T02:11:42.926Z,84.6
2022-11-19T02:21:42.904Z,83.1
2022-11-19T02:26:44.233Z,83.8
2022-11-19T02:31:42.894Z,83.8
2022-11-19T02:36:42.885Z,84.4
2022-11-19T02:41:42.909Z,83.4
2022-11-19T02:46:42.913Z,81.6
2022-11-19T02:51:43.090Z,82.8
2022-11-19T02:56:42.879Z,84.7
2022-11-19T03:01:42.966Z,84.1
2022-11-19T03:06:42.915Z,83.8
2022-11-19T03:11:42.878Z,83.9
2022-11-19T03:16:42.886Z,82.5
2022-11-19T03:21:42.891Z,82.6
2022-11-19T03:31:42.907Z,82.2
2022-11-19T03:36:42.889Z,81.7
2022-11-19T03:51:42.930Z,80.2
2022-11-19T04:01:42.946Z,81.7
2022-11-19T04:06:42.923Z,81.3
2022-11-19T04:16:42.912Z,81.0
2022-11-19T04:21:42.911Z,80.7
2022-11-19T04:26:42.949Z,80.8
2022-11-19T04:31:43.128Z,80.9
2022-11-19T04:36:43.110Z,81.0
2022-11-19T04:41:42.922Z,79.9
2022-11-19T04:46:42.926Z,80.5
2022-11-19T04:51:42.951Z,82.0
2022-11-19T04:56:42.930Z,82.0
2022-11-19T05:01:42.979Z,80.7
2022-11-19T05:06:42.914Z,80.9
2022-11-19T05:11:42.943Z,80.8
2022-11-19T05:16:42.972Z,81.0
2022-11-19T05:26:42.933Z,81.4
2022-11-19T05:36:42.951Z,81.0
2022-11-19T05:56:42.940Z,80.1
2022-11-19T06:06:44.402Z,80.9
2022-11-19T06:11:42.950Z,80.9
2022-11-19T06:16:42.920Z,79.4
2022-11-19T06:21:42.939Z,80.3
2022-11-19T06:26:42.953Z,80.1
2022-11-19T06:31:42.932Z,80.8
2022-11-19T06:36:47.652Z,80.3
2022-11-19T06:41:42.961Z,79.0
2022-11-19T06:46:42.953Z,79.7
2022-11-19T06:51:42.939Z,79.3
2022-11-19T06:56:42.942Z,79.2
2022-11-19T07:01:42.992Z,79.8
2022-11-19T07:06:42.934Z,79.8
2022-11-19T07:16:43.290Z,78.6
2022-11-19T07:21:42.966Z,78.6
2022-11-19T07:31:42.967Z,78.7
2022-11-19T07:41:42.946Z,79.0
2022-11-19T07:51:42.975Z,79.1
2022-11-19T07:56:42.961Z,78.4
2022-11-19T08:01:43.051Z,77.6
2022-11-19T08:06:42.983Z,77.9
2022-11-19T08:11:43.894Z,76.4
2022-11-19T08:16:42.953Z,76.4
2022-11-19T08:21:42.985Z,76.4
2022-11-19T08:26:42.985Z,77.0
2022-11-19T08:31:44.226Z,76.3
2022-11-19T08:51:42.996Z,75.3
2022-11-19T09:01:43.269Z,75.8
2022-11-19T09:06:43.015Z,74.5
2022-11-19T09:11:43.277Z,75.4
2022-11-19T09:16:42.987Z,74.8
2022-11-19T09:21:43.010Z,75.4
2022-11-19T09:26:42.989Z,73.3
2022-11-19T09:31:42.974Z,72.8
2022-11-19T09:36:43.020Z,62.2
2022-11-19T09:41:42.993Z,62.2
2022-11-19T09:46:42.981Z,61.0
2022-11-19T09:51:42.995Z,63.6
2022-11-19T09:56:43.004Z,63.7
2022-11-19T10:01:42.979Z,65.6
2022-11-19T10:06:42.973Z,67.4
2022-11-19T10:11:43.000Z,68.7
2022-11-19T10:16:43.000Z,67.7
2022-11-19T10:26:43.000Z,67.5
2022-11-19T10:36:42.983Z,64.9
2022-11-19T10:41:43.010Z,64.0
2022-11-19T10:46:43.009Z,63.6
2022-11-19T10:51:42.980Z,64.7
2022-11-19T10:56:42.997Z,63.6
2022-11-19T11:01:43.019Z,64.1
2022-11-19T11:06:42.992Z,63.6
2022-11-19T11:16:42.987Z,61.5
2022-11-19T11:21:43.039Z,62.2
2022-11-19T11:26:42.998Z,63.0
2022-11-19T11:31:43.030Z,63.7
2022-11-19T11:36:42.997Z,62.6
2022-11-19T11:42:06.601Z,60.2
2022-11-19T11:46:43.039Z,59.3
2022-11-19T11:51:43.003Z,59.9
2022-11-19T12:01:43.033Z,62.6
2022-11-19T12:06:43.011Z,63.9
2022-11-19T12:11:44.151Z,65.4
2022-11-19T12:16:44.363Z,65.4
2022-11-19T12:22:48.556Z,63.9
2022-11-19T12:26:43.003Z,63.9
2022-11-19T12:31:43.013Z,63.5
2022-11-19T12:41:43.025Z,63.6
2022-11-19T12:46:43.016Z,62.7
2022-11-19T12:51:43.047Z,62.5
2022-11-19T12:56:43.014Z,62.3
2022-11-19T13:01:59.922Z,61.0
2022-11-19T13:06:43.039Z,61.0
2022-11-19T13:11:43.040Z,60.9
2022-11-19T13:16:43.038Z,61.4
2022-11-19T13:21:43.056Z,59.5
2022-11-19T13:26:43.065Z,59.9
2022-11-19T14:06:43.032Z,56.7
2022-11-19T14:16:43.060Z,56.9
2022-11-19T14:36:43.041Z,56.8
2022-11-19T14:41:43.067Z,56.4
2022-11-19T14:46:43.075Z,57.5
2022-11-19T15:01:43.063Z,56.6
2022-11-19T15:11:43.055Z,57.2
2022-11-19T15:15:47.158Z,58.8
2022-11-19T15:21:43.068Z,60.0
2022-11-19T15:31:43.072Z,59.9
2022-11-19T15:36:43.079Z,58.8
2022-11-19T15:41:43.058Z,62.9
2022-11-19T15:46:43.076Z,62.7
2022-11-19T15:51:44.182Z,63.8
2022-11-19T16:15:56.608Z,64.7
2022-11-19T16:16:43.183Z,64.7
2022-11-19T16:38:55.446Z,66.0
2022-11-19T16:41:41.811Z,66.0
2022-11-19T16:42:14.172Z,67.1
2022-11-19T16:58:37.215Z,66.9
2022-11-19T17:02:12.076Z,67.1
2022-11-19T17:04:43.960Z,65.6
2022-11-19T17:05:23.466Z,65.6
2022-11-19T17:07:56.442Z,65.6
2022-11-19T17:08:39.842Z,66.0
2022-11-19T17:13:17.597Z,66.0
2022-11-19T17:15:09.092Z,65.5
2022-11-19T17:18:37.214Z,65.5
2022-11-19T17:24:28.043Z,66.9
2022-11-19T17:27:17.044Z,66.9
2022-11-19T17:27:46.687Z,66.9
2022-11-19T17:29:15.104Z,66.3
2022-11-19T17:30:29.993Z,66.3
2022-11-19T17:32:11.877Z,66.3
2022-11-19T17:32:49.114Z,66.3
2022-11-19T17:33:37.208Z,66.3
2022-11-19T17:35:29.272Z,66.9
2022-11-19T17:46:59.836Z,67.3
2022-11-19T17:59:20.091Z,67.9
2022-11-19T18:01:49.181Z,69.6
2022-11-19T18:04:31.911Z,71.1
2022-11-19T18:09:20.571Z,71.1
2022-11-19T18:14:33.050Z,68.4
2022-11-19T18:16:56.923Z,68.4
2022-11-19T18:19:12.249Z,69.8
2022-11-19T18:23:57.586Z,69.8
2022-11-19T18:24:10.023Z,70.5
2022-11-19T18:29:19.195Z,68.7
2022-11-19T18:31:43.286Z,68.7
2022-11-19T18:32:41.818Z,68.7
2022-11-19T18:33:58.404Z,68.7
2022-11-19T18:36:14.472Z,71.9
2022-11-19T18:38:58.400Z,71.9
2022-11-19T18:44:01.386Z,70.1
2022-11-19T18:44:59.004Z,71.5
2022-11-19T18:48:58.396Z,71.5
2022-11-19T19:13:22.707Z,72.7
2022-11-19T19:13:33.136Z,71.3
2022-11-19T19:16:09.319Z,71.3
2022-11-19T19:23:27.308Z,71.2
2022-11-19T19:28:26.680Z,71.2
2022-11-19T19:45:57.859Z,70.8
2022-11-19T19:50:57.887Z,71.6
2022-11-19T20:00:57.850Z,71.2
2022-11-19T20:05:57.918Z,70.4
2022-11-19T20:20:57.868Z,71.5
2022-11-19T20:35:57.893Z,70.2
2022-11-19T20:40:57.841Z,70.3
2022-11-19T20:45:57.862Z,70.5
2022-11-19T20:50:57.900Z,71.3
2022-11-19T20:56:04.884Z,71.9
2022-11-19T21:00:57.884Z,73.0
2022-11-19T21:05:57.881Z,71.4
2022-11-19T21:10:57.889Z,71.0
2022-11-19T21:15:57.876Z,71.1
2022-11-19T21:20:57.886Z,72.1
2022-11-19T21:25:57.871Z,73.4
2022-11-19T21:30:57.866Z,74.2
2022-11-19T21:35:57.879Z,73.4
2022-11-19T21:40:57.871Z,72.5
2022-11-19T21:45:57.890Z,73.6
2022-11-19T21:50:57.872Z,74.3
2022-11-19T21:55:57.878Z,73.9
2022-11-19T22:00:57.946Z,73.2
2022-11-19T22:05:57.895Z,74.7
2022-11-19T22:10:57.867Z,75.1
2022-11-19T22:15:57.886Z,74.0
2022-11-19T22:20:57.879Z,73.7
2022-11-19T22:25:57.892Z,73.7
2022-11-19T22:30:57.887Z,76.6
2022-11-19T22:40:57.889Z,74.0
2022-11-19T22:45:57.882Z,75.2
2022-11-19T22:50:57.877Z,72.0
2022-11-19T22:55:57.878Z,74.1
2022-11-19T23:00:57.964Z,74.9
2022-11-19T23:05:57.873Z,74.0
2022-11-19T23:15:57.910Z,75.8
2022-11-19T23:20:57.878Z,77.2
2022-11-19T23:25:57.877Z,77.0
2022-11-19T23:30:57.884Z,76.1
2022-11-19T23:35:57.890Z,75.1
2022-11-19T23:40:57.870Z,75.3
2022-11-19T23:45:57.884Z,77.9
2022-11-19T23:50:57.901Z,77.1
2022-11-19T23:55:57.877Z,75.1
